Time;durP1;ratioP1;P1;durP2;ratioP2;P2;SDS_P1;SDS_P2;PMS_P1;PMS_P2;Temp;Humidity;BMP_temperature;BMP_pressure;BME280_temperature;BME280_humidity;BME280_pressure;Samples;Min_cycle;Max_cycle;Signal;HPM_P1;HPM_P2
2023/02/26 00:01:41;;;;;;;29.98;13.90;;;;;;;2.74;98.42;97143.53;5047766;28;20071;-34
2023/02/26 00:04:07;;;;;;;35.13;13.43;;;;;;;2.77;98.49;97128.00;5065213;28;20036;-35
2023/02/26 00:06:35;;;;;;;24.77;10.70;;;;;;;2.72;98.33;97127.34;5047567;28;20036;-36
2023/02/26 00:09:03;;;;;;;31.25;11.80;;;;;;;2.71;98.48;97120.59;5066119;28;20056;-34
2023/02/26 00:11:30;;;;;;;26.52;12.07;;;;;;;2.68;98.57;97102.75;5064336;28;20032;-34
2023/02/26 00:13:56;;;;;;;31.50;12.65;;;;;;;2.75;98.59;97098.19;5047682;28;20036;-34
2023/02/26 00:16:35;;;;;;;30.83;13.65;;;;;;;2.78;98.82;97091.16;5064598;28;20052;-34
2023/02/26 00:19:04;;;;;;;32.08;13.32;;;;;;;2.84;98.45;97078.06;5063356;28;20040;-34
2023/02/26 00:21:30;;;;;;;26.00;12.05;;;;;;;2.83;98.03;97063.56;5065266;28;20048;-35
2023/02/26 00:23:57;;;;;;;23.05;10.88;;;;;;;2.92;98.02;97091.41;5031006;28;20085;-35
2023/02/26 00:26:24;;;;;;;25.85;11.25;;;;;;;2.88;98.02;97064.19;5066271;28;20047;-34
2023/02/26 00:28:50;;;;;;;24.75;11.60;;;;;;;2.73;97.97;97031.56;5062415;28;20044;-35
2023/02/26 00:31:17;;;;;;;27.63;13.30;;;;;;;2.88;97.97;97042.84;5065905;28;20641;-34
2023/02/26 00:33:44;;;;;;;23.58;11.20;;;;;;;2.88;97.67;97033.41;5067543;28;20122;-35
2023/02/26 00:36:20;;;;;;;27.33;10.20;;;;;;;2.92;97.61;97037.53;5048437;28;20048;-34
2023/02/26 00:39:06;;;;;;;23.00;10.70;;;;;;;2.91;97.63;97028.16;5049329;28;20052;-36
2023/02/26 00:41:32;;;;;;;22.75;10.60;;;;;;;2.88;96.86;97018.03;5050496;28;20094;-33
2023/02/26 00:43:58;;;;;;;23.00;10.40;;;;;;;2.71;97.06;96982.09;5070960;28;20619;-34
2023/02/26 00:46:42;;;;;;;23.02;10.27;;;;;;;2.83;97.11;97011.44;5069098;28;20047;-36
2023/02/26 00:49:32;;;;;;;20.55;9.38;;;;;;;2.77;97.77;97002.31;5052985;28;20109;-35
2023/02/26 00:52:01;;;;;;;16.95;7.55;;;;;;;2.38;97.74;96940.88;5070494;28;20453;-35
2023/02/26 00:54:29;;;;;;;20.50;9.65;;;;;;;2.62;98.25;96967.09;5070699;28;20063;-35
2023/02/26 00:56:56;;;;;;;15.75;7.32;;;;;;;2.66;98.98;96963.50;5070704;28;20044;-35
2023/02/26 00:59:23;;;;;;;16.52;8.55;;;;;;;2.36;98.95;96929.84;5080968;28;20059;-34
2023/02/26 01:01:49;;;;;;;22.98;10.30;;;;;;;2.46;99.88;96977.22;5054482;28;20091;-34
2023/02/26 01:04:17;;;;;;;16.45;8.10;;;;;;;2.32;100.00;96979.59;5065913;28;20425;-33
2023/02/26 01:06:54;;;;;;;19.63;8.50;;;;;;;2.42;100.00;97018.44;5069416;28;20533;-35
2023/02/26 01:09:35;;;;;;;16.00;7.45;;;;;;;2.32;100.00;97001.81;5068211;28;20131;-36
2023/02/26 01:12:07;;;;;;;13.70;6.82;;;;;;;2.31;100.00;97008.66;5051388;28;20123;-34
2023/02/26 01:14:34;;;;;;;21.13;9.73;;;;;;;2.32;100.00;97002.66;5052176;28;20086;-34
2023/02/26 01:17:18;;;;;;;13.05;6.78;;;;;;;2.31;100.00;96997.59;5069633;28;20068;-34
2023/02/26 01:19:54;;;;;;;14.55;6.47;;;;;;;2.29;100.00;96989.16;5068265;28;20512;-33
2023/02/26 01:22:53;;;;;;;12.43;6.53;;;;;;;2.27;100.00;96971.28;5080649;28;20132;-35
2023/02/26 01:25:29;;;;;;;13.20;6.63;;;;;;;2.26;100.00;96969.59;5034626;28;20053;-34
2023/02/26 01:27:56;;;;;;;18.48;7.28;;;;;;;2.06;100.00;96934.63;5051523;28;20150;-33
2023/02/26 01:30:23;;;;;;;12.25;6.22;;;;;;;2.22;100.00;96962.13;5067635;28;20029;-34
2023/02/26 01:33:07;;;;;;;13.13;6.00;;;;;;;2.20;100.00;96961.38;5068682;28;20043;-33
2023/02/26 01:36:03;;;;;;;13.60;6.30;;;;;;;2.24;100.00;96960.34;5072641;28;20530;-34
2023/02/26 01:38:30;;;;;;;10.85;5.78;;;;;;;2.22;100.00;96957.00;5045897;28;20048;-34
2023/02/26 01:41:07;;;;;;;14.50;6.65;;;;;;;2.05;100.00;96932.13;5067408;28;20090;-33
2023/02/26 01:43:53;;;;;;;11.07;5.70;;;;;;;2.10;100.00;96943.81;5068338;28;20045;-33
2023/02/26 01:46:25;;;;;;;9.27;5.03;;;;;;;2.09;100.00;96942.16;5067721;28;20309;-34
2023/02/26 01:48:57;;;;;;;11.65;5.70;;;;;;;1.88;100.00;96909.00;5049334;28;20072;-34
2023/02/26 01:51:52;;;;;;;10.23;5.18;;;;;;;2.07;100.00;96933.72;5052074;28;20049;-32
2023/02/26 01:54:38;;;;;;;12.27;5.57;;;;;;;2.10;100.00;96937.88;5066563;28;20038;-33
2023/02/26 01:57:11;;;;;;;12.25;6.22;;;;;;;2.10;100.00;96930.19;5049453;28;20044;-34
2023/02/26 01:59:41;;;;;;;9.98;5.45;;;;;;;2.07;100.00;96922.66;5048457;28;20146;-34
2023/02/26 02:02:09;;;;;;;8.70;4.57;;;;;;;2.03;100.00;96921.13;5067706;28;20690;-33
2023/02/26 02:04:36;;;;;;;12.20;6.03;;;;;;;2.07;100.00;96915.78;5067317;28;20043;-33
2023/02/26 02:07:04;;;;;;;10.73;4.82;;;;;;;2.05;100.00;96916.75;5068047;28;20040;-33
2023/02/26 02:09:30;;;;;;;10.73;5.07;;;;;;;1.80;100.00;96883.72;5066273;28;20084;-33
2023/02/26 02:12:17;;;;;;;14.30;6.28;;;;;;;1.97;100.00;96908.59;5049733;28;20052;-33
2023/02/26 02:15:09;;;;;;;10.82;4.90;;;;;;;1.72;100.00;96856.81;5066412;28;20040;-33
2023/02/26 02:17:48;;;;;;;9.70;4.90;;;;;;;2.02;100.00;96897.25;5066304;28;20044;-34
2023/02/26 02:20:39;;;;;;;9.88;5.13;;;;;;;2.00;100.00;96893.06;5055603;28;20105;-33
2023/02/26 02:23:27;;;;;;;7.70;4.45;;;;;;;2.05;100.00;96888.56;5066478;28;20068;-33
2023/02/26 02:26:14;;;;;;;8.32;3.78;;;;;;;2.08;100.00;96896.97;5066762;28;20066;-34
2023/02/26 02:29:22;;;;;;;8.15;4.80;;;;;;;2.03;100.00;96883.53;5067049;28;20040;-34
2023/02/26 02:31:58;;;;;;;8.82;4.32;;;;;;;2.05;100.00;96891.97;5043529;28;20053;-33
2023/02/26 02:34:41;;;;;;;10.10;4.18;;;;;;;2.03;100.00;96886.09;5064390;28;20128;-33
2023/02/26 02:37:16;;;;;;;9.65;4.70;;;;;;;2.03;100.00;96895.50;5052451;28;20045;-33
2023/02/26 02:39:54;;;;;;;7.30;4.28;;;;;;;1.96;100.00;96889.81;5067156;28;20041;-32
2023/02/26 02:42:55;;;;;;;8.80;4.25;;;;;;;1.94;100.00;96880.53;5050529;28;20041;-34
2023/02/26 02:45:30;;;;;;;18.00;8.45;;;;;;;1.87;100.00;96886.84;5026303;28;20045;-33
2023/02/26 02:48:04;;;;;;;8.63;5.10;;;;;;;1.88;100.00;96891.06;5044477;28;20048;-34
2023/02/26 02:50:37;;;;;;;12.60;5.45;;;;;;;1.68;100.00;96849.25;5068954;28;20052;-35
2023/02/26 02:53:08;;;;;;;8.77;4.00;;;;;;;1.83;100.00;96878.47;5049826;28;20037;-33
2023/02/26 02:55:42;;;;;;;14.13;7.43;;;;;;;1.78;100.00;96867.56;5047204;28;20040;-33
2023/02/26 02:58:16;;;;;;;7.15;4.50;;;;;;;1.81;100.00;96866.63;5048046;28;20045;-34
2023/02/26 03:00:47;;;;;;;8.40;4.53;;;;;;;1.63;100.00;96829.84;5043239;28;20040;-33
2023/02/26 03:03:34;;;;;;;8.40;4.38;;;;;;;1.82;100.00;96853.75;5049252;28;20045;-33
2023/02/26 03:06:00;;;;;;;7.72;4.45;;;;;;;1.88;100.00;96850.94;5064074;28;20470;-33
2023/02/26 03:08:30;;;;;;;7.00;3.78;;;;;;;1.80;100.00;96844.47;5062174;28;20089;-33
2023/02/26 03:10:56;;;;;;;8.15;4.43;;;;;;;1.88;100.00;96863.75;5065271;28;20075;-34
2023/02/26 03:13:24;;;;;;;8.32;4.68;;;;;;;1.89;100.00;96841.47;5065860;28;20097;-34
2023/02/26 03:16:06;;;;;;;7.95;4.25;;;;;;;1.91;100.00;96849.94;5067056;28;20626;-32
2023/02/26 03:18:51;;;;;;;6.65;4.22;;;;;;;1.83;100.00;96849.47;5066505;28;20460;-33
2023/02/26 03:21:29;;;;;;;7.85;4.47;;;;;;;1.83;100.00;96854.59;5066974;28;20044;-34
2023/02/26 03:24:28;;;;;;;7.40;3.63;;;;;;;1.78;100.00;96844.53;5046244;28;20458;-33
2023/02/26 03:27:33;;;;;;;6.88;4.10;;;;;;;1.76;100.00;96840.41;5045195;28;20040;-34
2023/02/26 03:30:21;;;;;;;9.55;5.25;;;;;;;1.78;100.00;96861.66;5046320;28;20048;-34
2023/02/26 03:32:59;;;;;;;8.50;4.18;;;;;;;1.72;100.00;96851.69;5063003;28;20040;-33
2023/02/26 03:35:31;;;;;;;10.98;5.95;;;;;;;1.72;100.00;96852.50;5065116;28;20040;-34
2023/02/26 03:38:00;;;;;;;9.55;5.18;;;;;;;1.73;100.00;96854.16;5064841;28;20048;-38
2023/02/26 03:40:40;;;;;;;7.82;4.07;;;;;;;1.71;100.00;96853.41;5049313;28;20045;-34
2023/02/26 03:43:18;;;;;;;13.00;5.85;;;;;;;1.35;100.00;96789.31;5046044;28;20051;-33
2023/02/26 03:45:46;;;;;;;11.50;5.82;;;;;;;1.70;100.00;96854.28;5049643;28;20131;-34
2023/02/26 03:48:16;;;;;;;11.10;5.25;;;;;;;1.59;100.00;96839.41;5048139;28;20538;-32
2023/02/26 03:50:48;;;;;;;14.30;6.40;;;;;;;1.66;100.00;96861.28;5048542;28;20427;-34
2023/02/26 03:53:49;;;;;;;11.38;6.13;;;;;;;1.64;100.00;96857.13;5061599;28;20056;-33
2023/02/26 03:56:21;;;;;;;12.57;6.35;;;;;;;1.64;100.00;96850.28;5065519;28;20098;-33
2023/02/26 03:59:09;;;;;;;9.80;4.65;;;;;;;1.65;100.00;96858.78;5062042;28;20080;-34
2023/02/26 04:01:42;;;;;;;12.70;5.90;;;;;;;1.65;100.00;96863.91;5064567;28;20041;-33
2023/02/26 04:04:22;;;;;;;12.68;6.43;;;;;;;1.64;100.00;96857.13;5049244;28;20153;-33
2023/02/26 04:06:48;;;;;;;14.80;7.00;;;;;;;1.44;100.00;96832.41;5047243;28;20051;-34
2023/02/26 04:09:14;;;;;;;10.95;6.45;;;;;;;1.33;100.00;96801.34;5047397;28;20162;-33
2023/02/26 04:11:41;;;;;;;16.30;6.90;;;;;;;1.47;100.00;96839.09;5049359;28;20032;-33
2023/02/26 04:14:07;;;;;;;8.48;4.57;;;;;;;1.68;100.00;96879.97;5032414;28;20505;-32
2023/02/26 04:16:37;;;;;;;10.27;5.13;;;;;;;1.68;100.00;96874.84;5033740;28;20051;-35
2023/02/26 04:19:03;;;;;;;10.57;4.93;;;;;;;1.69;100.00;96876.50;5069201;28;20520;-33
2023/02/26 04:21:29;;;;;;;7.57;4.63;;;;;;;1.71;100.00;96884.13;5066321;28;20475;-33
2023/02/26 04:23:55;;;;;;;8.20;4.05;;;;;;;1.74;100.00;96883.16;5067349;28;20045;-32
2023/02/26 04:26:21;;;;;;;11.75;6.07;;;;;;;1.77;100.00;96895.84;5068536;28;20671;-33
2023/02/26 04:28:47;;;;;;;8.98;4.68;;;;;;;1.57;100.00;96864.22;5069997;28;20068;-33
2023/02/26 04:31:14;;;;;;;12.10;5.78;;;;;;;1.60;100.00;96871.81;5069493;28;20134;-33
2023/02/26 04:33:40;;;;;;;12.32;5.85;;;;;;;1.85;100.00;96915.06;5071219;28;20037;-32
2023/02/26 04:36:06;;;;;;;9.32;5.05;;;;;;;1.74;100.00;96895.94;5053244;28;20036;-33
2023/02/26 04:38:33;;;;;;;11.43;5.55;;;;;;;1.85;100.00;96909.13;5053487;28;20040;-33
2023/02/26 04:40:59;;;;;;;10.48;4.78;;;;;;;1.85;100.00;96915.06;5086163;28;20071;-34
2023/02/26 04:43:26;;;;;;;10.18;4.25;;;;;;;1.90;100.00;96930.25;5086623;28;20063;-33
2023/02/26 04:46:12;;;;;;;10.55;4.47;;;;;;;1.92;100.00;96918.22;5069819;28;20048;-34
2023/02/26 04:48:38;;;;;;;6.32;2.92;;;;;;;1.69;100.00;96893.59;5070430;28;20330;-34
2023/02/26 04:51:04;;;;;;;10.45;4.65;;;;;;;1.74;100.00;96895.94;5047514;28;20045;-33
2023/02/26 04:53:31;;;;;;;10.02;4.15;;;;;;;1.94;100.00;96930.03;5058509;28;20123;-34
2023/02/26 04:55:57;;;;;;;7.28;4.22;;;;;;;1.97;100.00;96942.72;5068964;28;20127;-33
2023/02/26 04:58:23;;;;;;;8.90;2.72;;;;;;;1.70;100.00;96928.56;5070911;28;20518;-33
2023/02/26 05:00:50;;;;;;;4.85;2.67;;;;;;;1.90;100.00;96951.56;5068620;28;20040;-33
2023/02/26 05:03:17;;;;;;;9.00;4.45;;;;;;;1.73;100.00;96922.47;5067616;28;20094;-33
2023/02/26 05:05:43;;;;;;;8.38;4.10;;;;;;;1.76;100.00;96928.28;5068942;28;20489;-33
2023/02/26 05:08:09;;;;;;;6.85;3.78;;;;;;;1.92;100.00;96954.91;5067920;28;20036;-34
2023/02/26 05:10:35;;;;;;;5.95;3.28;;;;;;;1.97;100.00;96973.47;5066245;28;20154;-34
2023/02/26 05:13:03;;;;;;;6.90;3.15;;;;;;;1.93;100.00;96968.53;5069435;28;20033;-33
2023/02/26 05:15:29;;;;;;;5.18;2.67;;;;;;;1.89;100.00;96987.47;5068798;28;20044;-34
2023/02/26 05:17:55;;;;;;;5.05;2.78;;;;;;;1.87;100.00;96989.28;5068827;28;20131;-34
2023/02/26 05:20:21;;;;;;;5.95;2.50;;;;;;;1.84;100.00;96994.53;5066934;28;20093;-32
2023/02/26 05:22:47;;;;;;;5.30;2.20;;;;;;;1.87;100.00;96999.53;5043866;28;20052;-37
2023/02/26 05:25:13;;;;;;;9.68;2.80;;;;;;;1.88;100.00;97002.03;5067370;28;20040;-36
2023/02/26 05:27:43;;;;;;;7.35;2.75;;;;;;;1.93;100.00;97025.72;5066655;28;20094;-35
2023/02/26 05:30:13;;;;;;;3.95;2.42;;;;;;;1.84;100.00;97008.16;5033033;28;20044;-35
2023/02/26 05:32:39;;;;;;;2.13;1.35;;;;;;;1.67;100.00;96998.63;5067897;28;20041;-35
2023/02/26 05:35:06;;;;;;;3.25;1.83;;;;;;;1.78;100.00;97034.03;5067942;28;20131;-35
2023/02/26 05:37:32;;;;;;;2.88;1.70;;;;;;;1.77;100.00;97024.72;5068442;28;20067;-35
2023/02/26 05:39:57;;;;;;;4.88;2.28;;;;;;;1.79;100.00;97027.19;5067142;28;20040;-38
2023/02/26 05:42:23;;;;;;;2.13;1.35;;;;;;;1.76;100.00;97040.13;5088076;28;20129;-38
2023/02/26 05:44:50;;;;;;;3.88;1.55;;;;;;;1.73;100.00;97038.50;5068836;28;20475;-36
2023/02/26 05:47:16;;;;;;;2.10;1.33;;;;;;;1.77;100.00;97034.13;5070220;28;20123;-37
2023/02/26 05:49:42;;;;;;;2.95;1.70;;;;;;;1.78;100.00;97061.41;5077661;28;20129;-37
2023/02/26 05:52:08;;;;;;;1.88;0.82;;;;;;;1.75;100.00;97051.28;5085053;28;20048;-35
2023/02/26 05:54:34;;;;;;;1.70;0.98;;;;;;;1.74;100.00;97053.00;5069423;28;20047;-36
2023/02/26 05:57:00;;;;;;;3.60;1.67;;;;;;;1.77;100.00;97080.22;5070144;28;20036;-37
2023/02/26 05:59:26;;;;;;;1.85;0.82;;;;;;;1.75;100.00;97062.34;5069669;28;20124;-36
2023/02/26 06:01:52;;;;;;;2.63;1.30;;;;;;;1.66;100.00;97066.13;5065677;28;20075;-34
2023/02/26 06:04:18;;;;;;;2.55;1.42;;;;;;;1.78;100.00;97064.75;5050113;28;20420;-38
2023/02/26 06:06:44;;;;;;;2.38;1.40;;;;;;;1.80;100.00;97064.72;5052226;28;20036;-35
2023/02/26 06:09:10;;;;;;;2.20;1.35;;;;;;;1.67;100.00;97049.03;5069606;28;20056;-38
2023/02/26 06:11:37;;;;;;;2.38;1.45;;;;;;;1.85;100.00;97066.19;5069062;28;20044;-38
2023/02/26 06:14:03;;;;;;;1.35;0.85;;;;;;;1.94;100.00;97073.47;5071949;28;20036;-37
2023/02/26 06:16:29;;;;;;;2.75;1.40;;;;;;;1.81;100.00;97058.69;5067779;28;20481;-37
2023/02/26 06:18:54;;;;;;;2.05;1.20;;;;;;;1.97;100.00;97101.56;5067449;28;20123;-38
2023/02/26 06:21:20;;;;;;;1.45;1.02;;;;;;;1.97;100.00;97077.66;5064096;28;20105;-35
2023/02/26 06:23:46;;;;;;;1.58;1.02;;;;;;;2.03;100.00;97079.97;5066112;28;20072;-39
2023/02/26 06:26:12;;;;;;;2.55;1.52;;;;;;;2.10;100.00;97091.59;5067233;28;20047;-39
2023/02/26 06:28:38;;;;;;;2.72;1.30;;;;;;;1.94;100.00;97065.78;5066143;28;20044;-36
2023/02/26 06:31:04;;;;;;;1.75;1.15;;;;;;;2.09;100.00;97101.03;5068886;28;20049;-36
2023/02/26 06:33:30;;;;;;;3.20;1.45;;;;;;;2.17;100.00;97098.16;5067491;28;20043;-37
2023/02/26 06:35:58;;;;;;;0.50;0.50;;;;;;;2.27;100.00;97089.16;5066973;28;20036;-38
2023/02/26 06:38:24;;;;;;;1.38;1.23;;;;;;;2.13;100.00;97068.44;5068201;28;20048;-36
2023/02/26 06:40:50;;;;;;;3.00;1.15;;;;;;;2.29;100.00;97107.88;5065248;28;20051;-36
2023/02/26 06:43:16;;;;;;;2.70;1.00;;;;;;;2.30;100.00;97098.47;5077868;28;20128;-38
2023/02/26 06:45:42;;;;;;;2.38;1.20;;;;;;;2.25;100.00;97119.16;5062825;28;20136;-36
2023/02/26 06:48:08;;;;;;;2.53;1.40;;;;;;;2.00;100.00;97068.09;5067767;28;20043;-36
2023/02/26 06:50:34;;;;;;;2.15;1.15;;;;;;;2.24;100.00;97149.97;5067254;28;20428;-39
2023/02/26 06:53:00;;;;;;;2.70;1.27;;;;;;;2.24;100.00;97124.34;5059307;28;20041;-39
2023/02/26 06:55:26;;;;;;;2.20;1.30;;;;;;;2.29;100.00;97132.69;5065908;28;20055;-37
2023/02/26 06:57:54;;;;;;;3.10;1.38;;;;;;;2.40;100.00;97120.25;5055651;28;20128;-38
2023/02/26 07:00:20;;;;;;;2.47;1.30;;;;;;;2.48;100.00;97170.28;5051689;28;20048;-40
2023/02/26 07:02:46;;;;;;;2.00;1.30;;;;;;;2.32;100.00;97128.25;5056310;28;20238;-38
2023/02/26 07:05:12;;;;;;;2.28;1.60;;;;;;;2.39;100.00;97142.50;5057917;28;20143;-39
2023/02/26 07:07:38;;;;;;;1.42;0.95;;;;;;;2.40;100.00;97149.28;5062623;28;20164;-37
2023/02/26 07:10:04;;;;;;;2.05;1.50;;;;;;;2.45;100.00;97151.66;5070423;28;20056;-38
2023/02/26 07:12:30;;;;;;;2.25;1.13;;;;;;;2.44;100.00;97148.25;5069163;28;20035;-39
2023/02/26 07:14:56;;;;;;;3.90;2.03;;;;;;;2.51;100.00;97156.53;5050559;28;20613;-37
2023/02/26 07:17:23;;;;;;;3.78;1.75;;;;;;;2.36;99.61;97131.50;5051173;28;20040;-37
2023/02/26 07:19:50;;;;;;;2.22;1.40;;;;;;;2.54;99.24;97146.94;5046447;28;20643;-37
2023/02/26 07:22:16;;;;;;;1.92;1.25;;;;;;;2.51;98.13;97169.34;5077076;28;20595;-36
2023/02/26 07:24:42;;;;;;;2.22;1.15;;;;;;;2.40;98.26;97158.69;5049663;28;20534;-36
2023/02/26 07:27:09;;;;;;;1.88;1.08;;;;;;;2.38;97.63;97134.84;5047380;28;20048;-40
2023/02/26 07:29:35;;;;;;;1.70;1.10;;;;;;;2.51;97.78;97136.81;5076450;28;20102;-38
2023/02/26 07:32:01;;;;;;;1.85;1.27;;;;;;;2.57;96.75;97158.78;5061238;28;20044;-40
2023/02/26 07:34:27;;;;;;;2.97;1.15;;;;;;;2.58;96.40;97172.44;5069043;28;20036;-37
2023/02/26 07:36:53;;;;;;;2.10;1.35;;;;;;;2.53;95.95;97155.53;5064217;28;20043;-39
2023/02/26 07:39:19;;;;;;;2.47;1.35;;;;;;;2.67;96.94;97172.09;5059726;28;20032;-36
2023/02/26 07:41:45;;;;;;;3.17;1.30;;;;;;;2.71;97.76;97177.00;5059475;28;20049;-41
2023/02/26 07:44:14;;;;;;;3.13;1.77;;;;;;;2.51;96.90;97148.81;5047461;28;20420;-39
2023/02/26 07:46:40;;;;;;;2.88;1.35;;;;;;;2.80;96.49;97168.91;5066492;28;20045;-36
2023/02/26 07:49:06;;;;;;;3.05;1.70;;;;;;;3.08;96.41;97183.94;5065825;28;20040;-40
2023/02/26 07:51:32;;;;;;;1.88;1.02;;;;;;;3.22;95.31;97178.16;5067963;28;20036;-39
2023/02/26 07:53:58;;;;;;;1.50;1.17;;;;;;;3.31;95.44;97199.13;5063435;28;20097;-36
2023/02/26 07:56:24;;;;;;;1.63;0.93;;;;;;;3.14;92.75;97193.91;5075835;28;20127;-36
2023/02/26 07:58:50;;;;;;;2.88;1.50;;;;;;;3.17;93.84;97188.66;5061919;28;20033;-38
2023/02/26 08:01:16;;;;;;;2.20;1.20;;;;;;;3.15;94.12;97228.09;5065198;28;20504;-35
2023/02/26 08:03:42;;;;;;;2.17;1.40;;;;;;;2.99;93.31;97192.84;5067202;28;20068;-34
2023/02/26 08:06:08;;;;;;;1.88;1.40;;;;;;;2.89;93.96;97190.75;5058221;28;20041;-37
2023/02/26 08:08:34;;;;;;;2.88;1.42;;;;;;;2.86;94.73;97206.28;5060388;28;20135;-39
2023/02/26 08:11:00;;;;;;;5.25;1.70;;;;;;;2.83;94.45;97211.53;5060661;28;20063;-37
2023/02/26 08:13:26;;;;;;;1.65;1.00;;;;;;;2.87;94.03;97215.66;5053521;28;20046;-41
2023/02/26 08:15:52;;;;;;;2.97;1.35;;;;;;;2.90;92.15;97206.09;5052416;28;20518;-39
2023/02/26 08:18:19;;;;;;;1.50;1.20;;;;;;;2.94;91.76;97229.88;5065073;28;20045;-39
2023/02/26 08:20:45;;;;;;;1.55;1.00;;;;;;;2.69;89.00;97177.97;5058267;28;20041;-35
2023/02/26 08:23:11;;;;;;;2.28;1.10;;;;;;;2.83;86.53;97219.22;5048947;28;20508;-38
2023/02/26 08:25:38;;;;;;;2.88;1.05;;;;;;;2.73;87.27;97203.41;5059356;28;20145;-37
2023/02/26 08:28:04;;;;;;;3.03;0.90;;;;;;;2.89;86.16;97227.50;5054829;28;20041;-36
2023/02/26 08:30:30;;;;;;;1.38;0.90;;;;;;;2.87;84.03;97220.78;5058683;28;20040;-34
2023/02/26 08:32:56;;;;;;;2.83;0.98;;;;;;;2.73;85.01;97205.97;5050720;28;20666;-34
2023/02/26 08:35:22;;;;;;;3.25;1.30;;;;;;;2.94;85.25;97263.22;5051314;28;20036;-35
2023/02/26 08:37:48;;;;;;;1.48;0.88;;;;;;;3.04;83.89;97245.69;5054752;28;20111;-35
2023/02/26 08:40:14;;;;;;;0.73;0.50;;;;;;;3.05;82.97;97252.50;5053686;28;20032;-34
2023/02/26 08:42:40;;;;;;;1.38;0.85;;;;;;;3.39;80.22;97250.13;5057065;28;20052;-35
2023/02/26 08:45:07;;;;;;;0.98;0.88;;;;;;;3.56;78.10;97257.09;5056920;28;20053;-35
2023/02/26 08:47:33;;;;;;;2.20;0.98;;;;;;;3.58;76.78;97270.69;5061093;28;20052;-35
2023/02/26 08:49:59;;;;;;;1.92;0.93;;;;;;;3.63;76.87;97268.75;5059664;28;20535;-36
2023/02/26 08:52:25;;;;;;;0.88;0.80;;;;;;;3.75;75.98;97270.75;5059278;28;20511;-35
2023/02/26 08:54:51;;;;;;;1.95;1.00;;;;;;;3.71;74.20;97292.38;5058623;28;20091;-35
2023/02/26 08:57:17;;;;;;;0.88;0.63;;;;;;;3.67;72.61;97291.66;5058452;28;20127;-34
2023/02/26 08:59:43;;;;;;;2.30;0.98;;;;;;;3.71;74.05;97320.63;5057155;28;20922;-35
2023/02/26 09:02:10;;;;;;;1.38;0.82;;;;;;;3.60;75.39;97295.41;5057123;28;20577;-35
2023/02/26 09:04:36;;;;;;;1.50;0.90;;;;;;;3.52;77.40;97302.59;5068039;28;20543;-36
2023/02/26 09:07:03;;;;;;;1.15;0.77;;;;;;;3.05;76.48;97253.34;5040394;28;20059;-35
2023/02/26 09:09:29;;;;;;;2.25;1.00;;;;;;;3.28;76.82;97319.94;5057934;28;20045;-35
2023/02/26 09:11:54;;;;;;;0.75;0.70;;;;;;;3.30;77.50;97319.84;5060525;28;20041;-35
2023/02/26 09:14:21;;;;;;;0.85;0.50;;;;;;;3.22;76.41;97324.50;5053374;28;20051;-35
2023/02/26 09:16:47;;;;;;;3.10;0.95;;;;;;;3.20;76.70;97334.81;5053875;28;20128;-37
2023/02/26 09:19:13;;;;;;;0.63;0.52;;;;;;;3.13;77.34;97323.16;5076349;28;20040;-36
2023/02/26 09:21:39;;;;;;;2.38;0.93;;;;;;;3.14;78.48;97324.00;5056586;28;20040;-36
2023/02/26 09:24:05;;;;;;;0.60;0.50;;;;;;;3.19;79.35;97325.44;5062591;28;20036;-36
2023/02/26 09:26:31;;;;;;;1.10;0.80;;;;;;;3.11;78.71;97339.50;5062426;28;20043;-36
2023/02/26 09:28:57;;;;;;;1.85;0.70;;;;;;;3.05;78.79;97345.72;5061840;28;20040;-35
2023/02/26 09:31:23;;;;;;;0.95;0.77;;;;;;;2.88;78.92;97341.28;5060147;28;20036;-36
2023/02/26 09:33:49;;;;;;;1.08;0.70;;;;;;;2.67;81.29;97329.34;5062159;28;20523;-36
2023/02/26 09:36:15;;;;;;;3.13;1.35;;;;;;;2.70;83.70;97342.06;5063730;28;20044;-35
2023/02/26 09:38:43;;;;;;;0.60;0.52;;;;;;;2.81;85.18;97346.75;5078516;28;20041;-37
2023/02/26 09:41:16;;;;;;;0.80;0.63;;;;;;;2.73;84.95;97359.03;5060778;28;20044;-36
2023/02/26 09:44:04;;;;;;;1.55;0.90;;;;;;;2.64;83.98;97356.84;5056272;28;20538;-36
2023/02/26 09:46:45;;;;;;;0.97;0.63;;;;;;;2.72;84.08;97353.06;5059837;28;20072;-34
2023/02/26 09:49:31;;;;;;;1.33;0.80;;;;;;;2.83;82.24;97350.06;5072176;28;20071;-37
2023/02/26 09:52:04;;;;;;;1.90;0.90;;;;;;;2.91;81.31;97364.28;5064711;28;20105;-35
2023/02/26 09:54:34;;;;;;;1.00;0.80;;;;;;;3.00;81.14;97352.78;5047023;28;20152;-35
2023/02/26 09:57:00;;;;;;;1.50;0.70;;;;;;;3.04;79.53;97382.56;5064511;28;20044;-36
2023/02/26 09:59:30;;;;;;;1.08;0.90;;;;;;;2.95;77.91;97368.38;5050636;28;20058;-35
2023/02/26 10:02:03;;;;;;;1.15;0.75;;;;;;;2.96;78.24;97379.47;5080764;28;20045;-36
2023/02/26 10:04:49;;;;;;;1.15;0.63;;;;;;;2.93;78.34;97375.28;5052029;28;20110;-34
2023/02/26 10:07:40;;;;;;;1.42;0.88;;;;;;;2.94;78.35;97388.97;5075837;28;20704;-35
2023/02/26 10:10:32;;;;;;;2.22;0.85;;;;;;;2.93;78.57;97387.31;5064972;28;20060;-36
2023/02/26 10:13:02;;;;;;;2.72;1.02;;;;;;;2.87;78.22;97385.00;5065860;28;20063;-36
2023/02/26 10:15:41;;;;;;;1.48;0.80;;;;;;;2.75;79.10;97368.34;5061945;28;20039;-36
2023/02/26 10:18:16;;;;;;;2.03;1.05;;;;;;;2.89;80.36;97386.59;5065081;28;20393;-37
2023/02/26 10:21:12;;;;;;;0.88;0.60;;;;;;;2.64;80.30;97354.28;5065763;28;20047;-35
2023/02/26 10:23:42;;;;;;;2.40;0.95;;;;;;;2.67;81.07;97354.19;5057683;28;20098;-35
2023/02/26 10:26:13;;;;;;;2.30;0.90;;;;;;;2.84;80.95;97396.19;5056177;28;20041;-36
2023/02/26 10:29:16;;;;;;;0.80;0.65;;;;;;;2.84;80.61;97387.66;5057837;28;20041;-35
2023/02/26 10:31:42;;;;;;;1.35;0.73;;;;;;;2.91;81.53;97418.16;5052845;28;20076;-42
2023/02/26 10:34:34;;;;;;;4.03;0.80;;;;;;;2.92;80.08;97412.13;5061929;28;20071;-37
2023/02/26 10:37:15;;;;;;;1.83;0.90;;;;;;;2.94;81.26;97414.63;5062559;28;20085;-36
2023/02/26 10:39:57;;;;;;;3.97;1.50;;;;;;;2.79;82.97;97423.78;5040345;28;20420;-36
2023/02/26 10:42:38;;;;;;;1.40;1.00;;;;;;;2.71;85.23;97419.84;5057903;28;20044;-37
2023/02/26 10:45:35;;;;;;;3.15;1.05;;;;;;;2.60;88.02;97427.97;5057569;28;20040;-36
2023/02/26 10:48:16;;;;;;;6.97;1.63;;;;;;;2.50;89.33;97426.66;5079908;28;20060;-35
2023/02/26 10:50:52;;;;;;;4.45;2.00;;;;;;;2.54;90.02;97417.94;5077540;28;20582;-36
2023/02/26 10:53:20;;;;;;;3.25;1.02;;;;;;;2.59;89.52;97431.41;5045098;28;20129;-35
2023/02/26 10:56:08;;;;;;;3.80;1.40;;;;;;;2.60;87.96;97419.44;5056885;28;20423;-36
2023/02/26 10:58:34;;;;;;;2.60;1.03;;;;;;;2.63;87.03;97427.81;5061555;28;20063;-36
2023/02/26 11:01:00;;;;;;;2.13;1.50;;;;;;;2.53;85.56;97421.38;5055411;28;20047;-36
2023/02/26 11:03:30;;;;;;;6.32;1.65;;;;;;;2.55;86.97;97423.00;5059321;28;20099;-35
2023/02/26 11:05:55;;;;;;;3.80;1.50;;;;;;;2.61;88.59;97424.50;5063193;28;20093;-36
2023/02/26 11:08:27;;;;;;;3.40;1.60;;;;;;;2.46;88.86;97400.25;5062257;28;20118;-35
2023/02/26 11:11:02;;;;;;;1.83;0.93;;;;;;;2.50;85.61;97418.94;5027410;28;20718;-36
2023/02/26 11:13:31;;;;;;;1.75;1.20;;;;;;;2.40;86.14;97415.91;5042931;28;20511;-36
2023/02/26 11:16:01;;;;;;;3.15;1.60;;;;;;;2.54;84.41;97423.91;5063049;28;20111;-35
2023/02/26 11:18:40;;;;;;;1.90;0.88;;;;;;;2.67;84.80;97434.50;5065834;28;20090;-35
2023/02/26 11:21:07;;;;;;;2.80;1.45;;;;;;;2.76;83.72;97431.59;5062254;28;20432;-36
2023/02/26 11:23:34;;;;;;;2.03;1.27;;;;;;;2.88;83.14;97441.34;5063139;28;20043;-34
2023/02/26 11:26:07;;;;;;;4.40;1.55;;;;;;;3.01;83.14;97463.97;5063101;28;20040;-36
2023/02/26 11:28:44;;;;;;;3.05;1.23;;;;;;;2.95;80.16;97447.09;5065296;28;20032;-36
2023/02/26 11:31:14;;;;;;;3.35;1.15;;;;;;;3.00;79.67;97450.31;5061434;28;20055;-35
2023/02/26 11:33:49;;;;;;;1.95;0.93;;;;;;;3.07;78.97;97444.03;5084369;28;20071;-35
2023/02/26 11:36:17;;;;;;;1.70;1.08;;;;;;;3.13;78.22;97440.41;5064053;28;20089;-36
2023/02/26 11:38:52;;;;;;;1.58;0.80;;;;;;;3.23;77.55;97444.25;5057839;28;20613;-36
2023/02/26 11:41:18;;;;;;;2.40;1.50;;;;;;;3.35;76.75;97416.31;5064168;28;20346;-36
2023/02/26 11:43:47;;;;;;;2.63;0.80;;;;;;;3.95;75.09;97449.75;5062449;28;20476;-37
2023/02/26 11:46:13;;;;;;;;;;;;;;;3.98;73.34;97457.34;5064780;28;20119;-36
2023/02/26 11:48:42;;;;;;;2.40;0.93;;;;;;;3.70;72.80;97414.84;5061689;28;19916;-34
2023/02/26 11:51:13;;;;;;;1.83;1.10;;;;;;;3.86;73.32;97434.72;5062812;28;20048;-35
2023/02/26 11:53:51;;;;;;;3.15;1.20;;;;;;;3.92;71.03;97478.16;5060746;28;20085;-37